createdAt,value
2019-05-10T00:01:55.044Z,1.80
2019-05-10T00:04:42.530Z,1.50
2019-05-10T00:07:30.634Z,1.50
2019-05-10T00:09:59.698Z,1.80
2019-05-10T00:12:31.374Z,1.93
2019-05-10T00:15:01.267Z,1.50
2019-05-10T00:17:30.958Z,1.40
2019-05-10T00:20:00.695Z,1.50
2019-05-10T00:22:31.178Z,1.53
2019-05-10T00:25:04.482Z,1.67
2019-05-10T00:27:32.274Z,1.33
2019-05-10T00:30:01.979Z,1.70
2019-05-10T00:32:31.695Z,1.37
2019-05-10T00:35:01.438Z,1.40
2019-05-10T00:37:31.135Z,1.77
2019-05-10T00:42:27.866Z,1.67
2019-05-10T00:44:57.582Z,1.20
2019-05-10T00:47:27.270Z,2.10
2019-05-10T00:49:57.252Z,1.60
2019-05-10T00:52:28.022Z,1.60
2019-05-10T00:54:57.722Z,1.13
2019-05-10T00:57:27.703Z,1.20
2019-05-10T00:59:57.546Z,1.93
2019-05-10T01:02:27.238Z,1.27
2019-05-10T01:04:56.934Z,1.73
2019-05-10T01:07:26.894Z,1.47
2019-05-10T01:10:07.219Z,1.77
2019-05-10T01:12:36.894Z,1.80
2019-05-10T01:15:13.283Z,1.77
2019-05-10T01:17:43.114Z,1.80
2019-05-10T01:20:13.422Z,1.40
2019-05-10T01:22:43.247Z,1.50
2019-05-10T01:25:13.230Z,1.60
2019-05-10T01:27:42.934Z,1.60
2019-05-10T01:30:15.487Z,1.70
2019-05-10T01:32:45.251Z,1.60
2019-05-10T01:35:15.015Z,2.13
2019-05-10T01:37:44.959Z,1.90
2019-05-10T01:40:14.735Z,1.47
2019-05-10T01:42:44.426Z,1.80
2019-05-10T01:45:14.390Z,2.20
2019-05-10T01:47:44.111Z,1.47
2019-05-10T01:50:14.512Z,1.50
2019-05-10T01:52:44.636Z,1.67
2019-05-10T01:55:15.018Z,1.70
2019-05-10T01:57:44.920Z,2.10
2019-05-10T02:00:15.316Z,1.90
2019-05-10T02:02:44.986Z,2.60
2019-05-10T02:05:16.748Z,1.90
2019-05-10T02:07:46.834Z,1.80
2019-05-10T02:10:17.052Z,2.03
2019-05-10T02:12:46.878Z,1.93
2019-05-10T02:15:17.146Z,2.00
2019-05-10T02:17:46.991Z,1.87
2019-05-10T02:20:16.827Z,1.93
2019-05-10T02:22:46.780Z,1.60
2019-05-10T02:25:16.964Z,1.70
2019-05-10T02:27:46.803Z,1.60
2019-05-10T02:30:16.931Z,1.17
2019-05-10T02:32:46.630Z,1.50
2019-05-10T02:35:16.654Z,1.80
2019-05-10T02:37:47.439Z,1.50
2019-05-10T02:40:17.494Z,1.30
2019-05-10T02:42:47.214Z,1.90
2019-05-10T02:45:17.823Z,1.70
2019-05-10T02:47:47.507Z,1.43
2019-05-10T02:50:17.436Z,1.53
2019-05-10T02:52:47.401Z,1.73
2019-05-10T02:55:17.230Z,2.10
2019-05-10T02:57:47.880Z,2.10
2019-05-10T03:00:17.717Z,2.17
2019-05-10T03:02:48.152Z,1.50
2019-05-10T03:05:19.761Z,1.80
2019-05-10T03:07:52.540Z,1.93
2019-05-10T03:10:23.229Z,1.83
2019-05-10T03:12:57.256Z,2.33
2019-05-10T03:15:31.095Z,2.13
2019-05-10T03:18:04.416Z,2.53
2019-05-10T03:20:37.993Z,2.20
2019-05-10T03:23:12.794Z,1.87
2019-05-10T03:25:43.836Z,2.43
2019-05-10T03:28:13.680Z,2.00
2019-05-10T03:30:44.348Z,2.23
2019-05-10T03:33:14.388Z,2.00
2019-05-10T03:35:45.300Z,2.70
2019-05-10T03:38:15.552Z,2.10
2019-05-10T03:40:46.300Z,2.53
2019-05-10T03:43:16.272Z,2.37
2019-05-10T03:45:47.056Z,2.73
2019-05-10T03:48:17.024Z,2.33
2019-05-10T03:50:48.064Z,2.60
2019-05-10T03:53:20.801Z,2.57
2019-05-10T03:55:51.891Z,2.57
2019-05-10T03:58:21.727Z,2.30
2019-05-10T04:00:52.640Z,2.60
2019-05-10T04:03:24.685Z,4.43
2019-05-10T04:06:01.837Z,2.20
2019-05-10T04:08:35.161Z,2.63
2019-05-10T04:11:06.992Z,3.20
2019-05-10T04:13:40.600Z,2.43
2019-05-10T04:16:10.685Z,2.90
2019-05-10T04:18:40.788Z,2.47
2019-05-10T04:21:10.889Z,2.77
2019-05-10T04:23:40.977Z,3.00
2019-05-10T04:26:10.807Z,2.70
2019-05-10T04:28:41.766Z,6.20
2019-05-10T04:31:17.761Z,2.60
2019-05-10T04:33:47.821Z,2.97
2019-05-10T04:36:18.870Z,2.17
2019-05-10T04:38:48.945Z,4.47
2019-05-10T04:41:20.027Z,2.97
2019-05-10T04:43:49.847Z,2.67
2019-05-10T04:46:25.121Z,3.10
2019-05-10T04:48:55.209Z,2.53
2019-05-10T04:51:26.234Z,2.70
2019-05-10T04:53:57.215Z,4.13
2019-05-10T04:56:27.028Z,2.43
2019-05-10T04:58:56.992Z,2.70
2019-05-10T05:01:29.063Z,2.37
2019-05-10T05:03:59.160Z,2.43
2019-05-10T05:06:35.028Z,2.23
2019-05-10T05:09:07.154Z,2.27
2019-05-10T05:11:37.080Z,2.30
2019-05-10T05:14:09.463Z,2.37
2019-05-10T05:16:38.849Z,4.73
2019-05-10T05:19:08.936Z,3.30
2019-05-10T05:21:39.027Z,2.93
2019-05-10T05:24:09.147Z,2.37
2019-05-10T05:26:44.968Z,2.87
2019-05-10T05:29:14.933Z,2.63
2019-05-10T05:31:45.031Z,2.60
2019-05-10T05:34:15.124Z,1.80
2019-05-10T05:36:54.043Z,2.77
2019-05-10T05:39:23.994Z,2.37
2019-05-10T05:42:01.351Z,2.30
2019-05-10T05:44:32.163Z,2.57
2019-05-10T05:47:04.517Z,3.50
2019-05-10T05:49:37.104Z,2.40
2019-05-10T05:52:07.203Z,2.90
2019-05-10T05:54:37.839Z,2.30
2019-05-10T05:57:07.953Z,2.50
2019-05-10T05:59:38.699Z,1.90
2019-05-10T06:02:09.572Z,2.30
2019-05-10T06:04:40.926Z,2.37
2019-05-10T06:07:10.863Z,2.40
2019-05-10T06:09:43.836Z,2.23
2019-05-10T06:12:14.873Z,2.60
2019-05-10T06:14:49.986Z,2.30
2019-05-10T06:17:17.131Z,2.27
2019-05-10T06:19:47.092Z,1.90
2019-05-10T06:22:24.884Z,2.20
2019-05-10T06:24:54.981Z,1.50
2019-05-10T06:27:27.835Z,2.40
2019-05-10T06:29:57.803Z,2.00
2019-05-10T06:32:27.971Z,2.20
2019-05-10T06:34:57.835Z,1.97
2019-05-10T06:37:31.228Z,2.27
2019-05-10T06:40:00.282Z,2.03
2019-05-10T06:42:34.707Z,1.80
2019-05-10T06:45:04.859Z,2.20
2019-05-10T06:47:36.003Z,2.10
2019-05-10T06:50:09.314Z,1.53
2019-05-10T06:52:39.411Z,2.00
2019-05-10T06:55:16.933Z,2.00
2019-05-10T06:57:50.418Z,2.03
2019-05-10T07:00:19.670Z,2.07
2019-05-10T07:02:51.419Z,1.70
2019-05-10T07:05:21.440Z,1.90
2019-05-10T07:08:14.065Z,1.70
2019-05-10T07:10:44.339Z,1.53
2019-05-10T07:13:17.738Z,1.30
2019-05-10T07:15:48.782Z,1.90
2019-05-10T07:18:22.644Z,1.80
2019-05-10T07:20:50.679Z,1.83
2019-05-10T07:23:20.799Z,1.57
2019-05-10T07:25:50.922Z,1.50
2019-05-10T07:28:21.108Z,2.30
2019-05-10T07:30:57.173Z,2.10
2019-05-10T07:33:32.135Z,1.70
2019-05-10T07:36:14.304Z,1.83
2019-05-10T07:38:37.535Z,1.47
2019-05-10T07:41:07.489Z,1.90
2019-05-10T07:43:37.603Z,1.97
2019-05-10T07:46:17.625Z,1.90
2019-05-10T07:48:53.580Z,1.87
2019-05-10T07:51:22.837Z,1.50
2019-05-10T07:54:04.455Z,1.90
2019-05-10T07:56:38.964Z,2.00
2019-05-10T07:59:09.039Z,1.70
2019-05-10T08:01:39.159Z,1.67
2019-05-10T08:04:19.764Z,1.43
2019-05-10T08:06:53.643Z,1.70
2019-05-10T08:09:23.733Z,1.50
2019-05-10T08:12:00.601Z,1.20
2019-05-10T08:14:28.822Z,1.77
2019-05-10T08:17:06.208Z,1.50
2019-05-10T08:19:37.531Z,1.20
2019-05-10T08:22:09.339Z,1.00
2019-05-10T08:24:46.430Z,1.47
2019-05-10T08:27:14.910Z,1.67
2019-05-10T08:29:44.686Z,1.50
2019-05-10T08:32:14.775Z,1.03
2019-05-10T08:34:52.327Z,1.27
2019-05-10T08:37:19.389Z,1.30
2019-05-10T08:39:51.479Z,5.90
2019-05-10T08:42:38.967Z,2.23
2019-05-10T08:45:05.280Z,2.07
2019-05-10T08:47:34.465Z,2.57
2019-05-10T08:50:18.001Z,1.63
2019-05-10T08:52:36.740Z,1.93
2019-05-10T08:55:08.042Z,3.07
2019-05-10T08:57:44.471Z,2.80
2019-05-10T09:00:38.359Z,3.50
2019-05-10T09:02:53.023Z,1.77
2019-05-10T09:05:28.996Z,1.23
2019-05-10T09:07:56.820Z,1.43
2019-05-10T09:10:26.689Z,1.77
2019-05-10T09:12:58.356Z,1.70
2019-05-10T09:15:51.395Z,1.67
2019-05-10T09:18:19.071Z,1.80
2019-05-10T09:20:49.196Z,1.50
2019-05-10T09:23:20.641Z,1.30
2019-05-10T09:25:51.884Z,1.10
2019-05-10T09:28:24.069Z,1.40
2019-05-10T09:31:00.645Z,1.23
2019-05-10T09:33:25.688Z,1.20
2019-05-10T09:35:59.132Z,1.30
2019-05-10T09:38:28.547Z,1.33
2019-05-10T09:40:59.147Z,1.63
2019-05-10T09:43:31.744Z,1.90
2019-05-10T09:46:02.732Z,1.40
2019-05-10T09:48:54.486Z,1.20
2019-05-10T09:51:27.944Z,1.47
2019-05-10T09:54:01.040Z,1.33
2019-05-10T09:56:32.956Z,1.60
2019-05-10T09:59:02.896Z,1.50
2019-05-10T10:01:33.068Z,1.37
2019-05-10T10:04:08.940Z,1.40
2019-05-10T10:06:41.891Z,1.20
2019-05-10T10:09:17.224Z,1.60
2019-05-10T10:11:57.388Z,1.33
2019-05-10T10:14:18.766Z,1.20
2019-05-10T10:16:57.987Z,1.47
2019-05-10T10:19:23.944Z,1.40
2019-05-10T10:21:52.084Z,1.80
2019-05-10T10:24:22.194Z,2.53
2019-05-10T10:26:54.027Z,1.53
2019-05-10T10:29:28.652Z,1.50
2019-05-10T10:31:58.850Z,1.30
2019-05-10T10:34:32.763Z,3.03
2019-05-10T10:37:07.741Z,1.50
2019-05-10T10:39:37.983Z,1.13
2019-05-10T10:42:12.736Z,2.20
2019-05-10T10:44:39.476Z,1.23
2019-05-10T10:47:09.456Z,1.30
2019-05-10T10:49:39.568Z,1.40
2019-05-10T10:52:11.372Z,1.70
2019-05-10T10:54:40.804Z,1.10
2019-05-10T10:57:13.809Z,1.40
2019-05-10T10:59:43.877Z,1.30
2019-05-10T11:02:33.767Z,2.10
2019-05-10T11:04:48.834Z,1.40
2019-05-10T11:07:18.576Z,1.83
2019-05-10T11:09:53.815Z,1.70
2019-05-10T11:12:24.163Z,1.47
2019-05-10T11:15:01.106Z,1.40
2019-05-10T11:17:31.007Z,1.20
2019-05-10T11:20:01.038Z,1.57
2019-05-10T11:22:32.018Z,1.30
2019-05-10T11:25:09.150Z,1.40
2019-05-10T11:27:34.792Z,1.50
2019-05-10T11:30:07.248Z,1.13
2019-05-10T11:32:42.990Z,1.60
2019-05-10T11:35:19.024Z,1.30
2019-05-10T11:37:45.902Z,1.37
2019-05-10T11:40:17.983Z,1.60
2019-05-10T11:42:58.576Z,1.27
2019-05-10T11:45:34.343Z,1.40
2019-05-10T11:48:15.441Z,1.30
2019-05-10T11:50:46.451Z,1.30
2019-05-10T11:55:48.116Z,1.33
2019-05-10T11:58:23.736Z,1.30
2019-05-10T11:59:04.884Z,1.50
2019-05-10T12:00:59.360Z,1.30
2019-05-10T12:03:24.771Z,1.30
2019-05-10T12:06:04.696Z,1.43
2019-05-10T12:08:26.272Z,1.70
2019-05-10T12:11:13.657Z,1.10
2019-05-10T12:13:37.104Z,1.37
2019-05-10T12:16:08.125Z,1.30
2019-05-10T12:18:46.376Z,1.47
2019-05-10T12:21:18.240Z,1.53
2019-05-10T12:23:54.844Z,1.53
2019-05-10T12:29:02.753Z,2.10
2019-05-10T12:31:27.976Z,1.70
2019-05-10T12:34:00.486Z,1.73
2019-05-10T12:36:36.697Z,1.40
2019-05-10T12:39:08.244Z,1.80
2019-05-10T12:41:39.881Z,1.70
2019-05-10T12:44:16.204Z,1.77
2019-05-10T12:47:05.518Z,1.50
2019-05-10T12:49:36.489Z,2.07
2019-05-10T12:52:14.196Z,2.13
2019-05-10T12:54:44.552Z,1.90
2019-05-10T12:57:14.968Z,1.40
2019-05-10T12:59:45.124Z,1.70
2019-05-10T13:02:15.012Z,2.47
2019-05-10T13:04:47.102Z,1.60
2019-05-10T13:07:31.689Z,1.53
2019-05-10T13:10:06.297Z,1.60
2019-05-10T13:12:37.047Z,1.10
2019-05-10T13:15:08.172Z,1.40
2019-05-10T13:17:44.219Z,1.50
2019-05-10T13:20:10.662Z,1.20
2019-05-10T13:22:40.778Z,1.90
2019-05-10T13:25:12.757Z,1.57
2019-05-10T13:27:42.872Z,1.70
2019-05-10T13:30:13.499Z,1.67
2019-05-10T13:32:44.234Z,1.40
2019-05-10T13:35:14.266Z,1.13
2019-05-10T13:37:44.380Z,1.60
2019-05-10T13:40:14.294Z,1.90
2019-05-10T13:42:45.990Z,1.90
2019-05-10T13:45:16.424Z,1.23
2019-05-10T13:47:46.403Z,1.20
2019-05-10T13:50:16.304Z,1.63
2019-05-10T13:52:46.261Z,1.20
2019-05-10T13:55:16.442Z,1.63
2019-05-10T13:57:46.281Z,1.37
2019-05-10T14:00:16.523Z,1.20
2019-05-10T14:02:48.484Z,1.30
2019-05-10T14:05:19.967Z,1.70
2019-05-10T14:07:52.670Z,1.87
2019-05-10T14:10:23.608Z,1.80
2019-05-10T14:12:56.255Z,1.77
2019-05-10T14:15:26.429Z,1.40
2019-05-10T14:17:56.404Z,1.77
2019-05-10T14:20:27.778Z,1.23
2019-05-10T14:22:58.924Z,1.30
2019-05-10T14:25:36.471Z,1.40
2019-05-10T14:28:00.680Z,1.60
2019-05-10T14:30:30.576Z,2.27
2019-05-10T14:33:00.272Z,1.30
2019-05-10T14:35:29.961Z,1.87
2019-05-10T14:38:10.367Z,1.30
2019-05-10T14:40:46.738Z,1.33
2019-05-10T14:43:22.932Z,1.10
2019-05-10T14:45:53.746Z,1.20
2019-05-10T14:48:28.849Z,1.50
2019-05-10T14:51:03.296Z,1.23
2019-05-10T14:53:28.145Z,1.03
2019-05-10T14:55:57.824Z,1.27
2019-05-10T14:58:27.540Z,1.10
2019-05-10T15:00:57.228Z,1.53
2019-05-10T15:03:27.230Z,3.60
2019-05-10T15:06:01.392Z,1.37
2019-05-10T15:08:28.640Z,1.43
2019-05-10T15:10:58.480Z,2.33
2019-05-10T15:13:28.484Z,2.20
2019-05-10T15:15:58.623Z,4.40
2019-05-10T15:18:28.720Z,1.73
2019-05-10T15:20:59.500Z,1.70
2019-05-10T15:23:29.200Z,1.77
2019-05-10T15:26:10.460Z,1.10
2019-05-10T15:28:34.377Z,1.37
2019-05-10T15:31:03.014Z,1.10
2019-05-10T15:33:33.040Z,1.50
2019-05-10T15:36:02.877Z,2.03
2019-05-10T15:38:32.838Z,1.80
2019-05-10T15:41:04.665Z,1.60
2019-05-10T15:43:34.380Z,1.77
2019-05-10T15:46:06.248Z,1.83
2019-05-10T15:48:36.590Z,1.37
2019-05-10T15:51:11.119Z,1.17
2019-05-10T15:53:40.224Z,1.73
2019-05-10T15:56:13.289Z,1.83
2019-05-10T15:58:44.110Z,2.20
2019-05-10T16:01:14.617Z,1.53
2019-05-10T16:03:50.641Z,1.50
2019-05-10T16:06:20.737Z,2.07
2019-05-10T16:08:50.788Z,2.30
2019-05-10T16:11:20.881Z,2.17
2019-05-10T16:13:54.818Z,1.80
2019-05-10T16:16:30.496Z,1.30
2019-05-10T16:18:58.338Z,1.30
2019-05-10T16:21:28.432Z,1.40
2019-05-10T16:23:58.272Z,1.10
2019-05-10T16:26:28.224Z,1.00
2019-05-10T16:29:01.661Z,1.10
2019-05-10T16:31:30.136Z,1.10
2019-05-10T16:34:00.240Z,1.10
2019-05-10T16:36:32.037Z,2.90
2019-05-10T16:39:02.230Z,1.63
2019-05-10T16:41:32.278Z,1.60
2019-05-10T16:44:04.588Z,1.20
2019-05-10T16:46:36.496Z,1.40
2019-05-10T16:49:10.007Z,1.50
2019-05-10T16:51:42.508Z,1.13
2019-05-10T16:54:13.411Z,1.30
2019-05-10T16:56:41.935Z,1.40
2019-05-10T16:59:12.678Z,1.50
2019-05-10T17:01:42.716Z,1.90
2019-05-10T17:04:14.750Z,1.47
2019-05-10T17:06:55.562Z,2.03
2019-05-10T17:09:24.748Z,1.80
2019-05-10T17:11:55.341Z,1.30
2019-05-10T17:14:27.233Z,1.03
2019-05-10T17:17:04.064Z,1.20
2019-05-10T17:19:36.192Z,1.40
2019-05-10T17:22:07.157Z,1.00
2019-05-10T17:24:38.139Z,1.37
2019-05-10T17:27:09.149Z,1.20
2019-05-10T17:29:39.064Z,1.20
2019-05-10T17:32:08.780Z,1.20
2019-05-10T17:34:38.492Z,1.40
2019-05-10T17:37:10.358Z,1.60
2019-05-10T17:39:46.730Z,1.50
2019-05-10T17:42:16.900Z,1.13
2019-05-10T17:44:47.028Z,1.37
2019-05-10T17:47:17.130Z,1.23
2019-05-10T17:49:50.349Z,1.43
2019-05-10T17:52:20.753Z,1.47
2019-05-10T17:54:52.217Z,2.00
2019-05-10T17:57:24.127Z,2.50
2019-05-10T17:59:54.667Z,1.87
2019-05-10T18:02:24.888Z,2.80
2019-05-10T18:04:59.601Z,2.33
2019-05-10T18:07:26.256Z,2.33
2019-05-10T18:09:55.933Z,1.90
2019-05-10T18:12:27.437Z,2.17
2019-05-10T18:14:58.208Z,2.30
2019-05-10T18:17:27.896Z,1.30
2019-05-10T18:20:02.174Z,1.60
2019-05-10T18:22:42.320Z,1.80
2019-05-10T18:25:05.992Z,2.70
2019-05-10T18:27:36.765Z,2.80
2019-05-10T18:30:08.021Z,3.70
2019-05-10T18:32:37.970Z,3.90
2019-05-10T18:35:14.547Z,2.60
2019-05-10T18:37:42.593Z,2.27
2019-05-10T18:40:14.049Z,2.10
2019-05-10T18:42:44.145Z,1.87
2019-05-10T18:45:14.381Z,1.73
2019-05-10T18:47:45.429Z,1.53
2019-05-10T18:50:16.326Z,1.33
2019-05-10T18:52:46.325Z,1.60
2019-05-10T18:55:17.783Z,1.30
2019-05-10T18:57:50.730Z,1.80
2019-05-10T19:00:23.157Z,2.17
2019-05-10T19:02:55.342Z,2.30
2019-05-10T19:05:31.620Z,1.87
2019-05-10T19:08:03.903Z,2.00
2019-05-10T19:10:32.749Z,2.60
2019-05-10T19:13:04.834Z,2.20
2019-05-10T19:15:34.783Z,1.90
2019-05-10T19:18:04.644Z,2.03
2019-05-10T19:20:34.341Z,2.70
2019-05-10T19:23:05.515Z,3.97
2019-05-10T19:25:37.777Z,5.00
2019-05-10T19:28:07.789Z,6.67
2019-05-10T19:30:38.129Z,8.00
2019-05-10T19:33:10.531Z,7.70
2019-05-10T19:35:46.253Z,5.73
2019-05-10T19:38:16.496Z,5.10
2019-05-10T19:40:47.189Z,4.83
2019-05-10T19:43:21.691Z,3.77
2019-05-10T19:45:51.096Z,4.43
2019-05-10T19:48:20.690Z,4.60
2019-05-10T19:50:53.025Z,5.70
2019-05-10T19:53:22.732Z,6.20
2019-05-10T19:56:04.051Z,7.80
2019-05-10T19:58:34.057Z,10.30
2019-05-10T20:01:05.033Z,8.60
2019-05-10T20:03:34.735Z,4.77
2019-05-10T20:06:13.861Z,4.40
2019-05-10T20:08:44.884Z,3.03
2019-05-10T20:11:20.631Z,3.30
2019-05-10T20:13:50.885Z,3.27
2019-05-10T20:16:22.452Z,2.90
2019-05-10T20:18:56.235Z,2.40
2019-05-10T20:21:26.169Z,3.00
2019-05-10T20:23:57.537Z,2.83
2019-05-10T20:26:27.214Z,2.90
2019-05-10T20:28:57.178Z,2.57
2019-05-10T20:31:30.599Z,3.00
2019-05-10T20:34:01.201Z,3.07
2019-05-10T20:36:33.586Z,3.10
2019-05-10T20:39:12.682Z,2.70
2019-05-10T20:41:43.414Z,3.50
2019-05-10T20:44:13.146Z,3.73
2019-05-10T20:46:43.821Z,3.80
2019-05-10T20:49:13.513Z,3.70
2019-05-10T20:51:43.527Z,3.30
2019-05-10T20:54:13.389Z,3.50
2019-05-10T20:56:43.083Z,4.07
2019-05-10T20:59:14.953Z,3.87
2019-05-10T21:01:44.802Z,3.97
2019-05-10T21:04:14.761Z,3.97
2019-05-10T21:06:45.493Z,3.30
2019-05-10T21:09:15.217Z,3.63
2019-05-10T21:11:45.166Z,3.60
2019-05-10T21:14:15.887Z,4.13
2019-05-10T21:16:45.834Z,4.20
2019-05-10T21:19:19.498Z,5.03
2019-05-10T21:21:47.322Z,4.50
2019-05-10T21:24:17.029Z,5.00
2019-05-10T21:26:46.771Z,3.20
2019-05-10T21:29:16.485Z,3.13
2019-05-10T21:31:46.263Z,3.33
2019-05-10T21:34:15.958Z,3.90
2019-05-10T21:36:45.922Z,3.73
2019-05-10T21:39:16.111Z,4.23
2019-05-10T21:41:46.281Z,3.37
2019-05-10T21:44:16.102Z,3.90
2019-05-10T21:46:45.793Z,4.60
2019-05-10T21:49:15.746Z,3.97
2019-05-10T21:51:45.831Z,4.47
2019-05-10T21:54:15.927Z,4.53
2019-05-10T21:56:46.013Z,4.33
2019-05-10T21:59:15.837Z,4.30
2019-05-10T22:01:45.549Z,3.27
2019-05-10T22:04:15.245Z,4.07
2019-05-10T22:06:45.194Z,4.60
2019-05-10T22:09:21.463Z,4.43
2019-05-10T22:11:51.141Z,4.77
2019-05-10T22:14:21.100Z,4.67
2019-05-10T22:16:52.130Z,4.93
2019-05-10T22:19:23.158Z,4.07
2019-05-10T22:21:55.580Z,3.80
2019-05-10T22:24:25.649Z,4.00
2019-05-10T22:26:55.985Z,4.10
2019-05-10T22:29:27.022Z,3.40
2019-05-10T22:31:57.809Z,3.60
2019-05-10T22:34:27.803Z,4.13
2019-05-10T22:36:57.894Z,3.70
2019-05-10T22:39:27.709Z,4.17
2019-05-10T22:41:58.397Z,4.00
2019-05-10T22:44:28.354Z,5.20
2019-05-10T22:47:05.099Z,5.27
2019-05-10T22:49:40.961Z,4.30
2019-05-10T22:52:16.893Z,5.17
2019-05-10T22:54:46.849Z,4.63
2019-05-10T22:57:23.774Z,5.07
2019-05-10T22:59:56.908Z,3.70
2019-05-10T23:02:27.007Z,4.47
2019-05-10T23:04:57.187Z,4.83
2019-05-10T23:07:27.282Z,4.20
2019-05-10T23:09:57.469Z,3.87
2019-05-10T23:12:27.406Z,3.37
2019-05-10T23:14:57.085Z,2.83
2019-05-10T23:17:27.042Z,3.17
2019-05-10T23:19:57.825Z,3.67
2019-05-10T23:22:30.598Z,3.10
2019-05-10T23:25:00.429Z,3.47
2019-05-10T23:27:30.385Z,3.67
2019-05-10T23:30:00.482Z,3.70
2019-05-10T23:32:32.306Z,3.43
2019-05-10T23:35:07.906Z,4.20
2019-05-10T23:37:40.621Z,4.33
2019-05-10T23:40:11.398Z,4.00
2019-05-10T23:42:41.201Z,3.97
2019-05-10T23:45:11.557Z,4.27
2019-05-10T23:47:41.427Z,4.80
2019-05-10T23:50:12.040Z,4.10
2019-05-10T23:52:41.997Z,3.50
2019-05-10T23:55:12.190Z,4.03
2019-05-10T23:57:42.112Z,4.37
